sensor_id;sensor_type;location;lat;lon;timestamp;temperature;humidity
7530;DHT22;3806;52.270;10.544;2023-04-24T00:00:54;15.10;97.80
7530;DHT22;3806;52.270;10.544;2023-04-24T00:03:22;15.10;97.90
7530;DHT22;3806;52.270;10.544;2023-04-24T00:05:48;15.20;97.80
7530;DHT22;3806;52.270;10.544;2023-04-24T00:08:14;15.20;97.80
7530;DHT22;3806;52.270;10.544;2023-04-24T00:10:39;15.10;97.90
7530;DHT22;3806;52.270;10.544;2023-04-24T00:13:05;15.10;98.10
7530;DHT22;3806;52.270;10.544;2023-04-24T00:15:30;15.00;98.10
7530;DHT22;3806;52.270;10.544;2023-04-24T00:17:56;15.00;98.10
7530;DHT22;3806;52.270;10.544;2023-04-24T00:20:22;15.00;98.10
7530;DHT22;3806;52.270;10.544;2023-04-24T00:22:47;14.90;98.20
7530;DHT22;3806;52.270;10.544;2023-04-24T00:25:13;14.90;98.20
7530;DHT22;3806;52.270;10.544;2023-04-24T00:27:39;14.90;98.20
7530;DHT22;3806;52.270;10.544;2023-04-24T00:30:05;14.90;98.40
7530;DHT22;3806;52.270;10.544;2023-04-24T00:32:31;14.90;98.40
7530;DHT22;3806;52.270;10.544;2023-04-24T00:34:56;14.80;98.50
7530;DHT22;3806;52.270;10.544;2023-04-24T00:37:22;14.80;98.70
7530;DHT22;3806;52.270;10.544;2023-04-24T00:39:47;14.70;98.70
7530;DHT22;3806;52.270;10.544;2023-04-24T00:42:13;14.70;98.70
7530;DHT22;3806;52.270;10.544;2023-04-24T00:44:38;14.70;98.70
7530;DHT22;3806;52.270;10.544;2023-04-24T00:47:04;14.70;98.70
7530;DHT22;3806;52.270;10.544;2023-04-24T00:49:30;14.70;98.70
7530;DHT22;3806;52.270;10.544;2023-04-24T00:51:55;14.60;98.70
7530;DHT22;3806;52.270;10.544;2023-04-24T00:54:22;14.60;98.80
7530;DHT22;3806;52.270;10.544;2023-04-24T00:56:48;14.60;98.80
7530;DHT22;3806;52.270;10.544;2023-04-24T00:59:16;14.50;98.90
7530;DHT22;3806;52.270;10.544;2023-04-24T01:01:42;14.50;98.80
7530;DHT22;3806;52.270;10.544;2023-04-24T01:04:09;14.50;98.80
7530;DHT22;3806;52.270;10.544;2023-04-24T01:06:40;14.40;98.90
7530;DHT22;3806;52.270;10.544;2023-04-24T01:09:06;14.40;99.00
7530;DHT22;3806;52.270;10.544;2023-04-24T01:11:36;14.30;99.00
7530;DHT22;3806;52.270;10.544;2023-04-24T01:14:01;14.30;99.00
7530;DHT22;3806;52.270;10.544;2023-04-24T01:16:27;14.30;99.10
7530;DHT22;3806;52.270;10.544;2023-04-24T01:18:52;14.30;99.10
7530;DHT22;3806;52.270;10.544;2023-04-24T01:21:18;14.20;99.40
7530;DHT22;3806;52.270;10.544;2023-04-24T01:23:46;14.20;99.30
7530;DHT22;3806;52.270;10.544;2023-04-24T01:26:14;14.20;99.40
7530;DHT22;3806;52.270;10.544;2023-04-24T01:28:40;14.20;99.50
7530;DHT22;3806;52.270;10.544;2023-04-24T01:31:06;14.20;99.40
7530;DHT22;3806;52.270;10.544;2023-04-24T01:33:32;14.20;99.50
7530;DHT22;3806;52.270;10.544;2023-04-24T01:35:58;14.20;99.60
7530;DHT22;3806;52.270;10.544;2023-04-24T01:38:24;14.20;99.60
7530;DHT22;3806;52.270;10.544;2023-04-24T01:40:49;14.10;99.60
7530;DHT22;3806;52.270;10.544;2023-04-24T01:43:15;14.20;99.70
7530;DHT22;3806;52.270;10.544;2023-04-24T01:45:41;14.20;99.80
7530;DHT22;3806;52.270;10.544;2023-04-24T01:48:07;14.10;99.80
7530;DHT22;3806;52.270;10.544;2023-04-24T01:50:32;14.00;99.90
7530;DHT22;3806;52.270;10.544;2023-04-24T01:52:58;14.00;99.90
7530;DHT22;3806;52.270;10.544;2023-04-24T01:55:23;14.00;99.90
7530;DHT22;3806;52.270;10.544;2023-04-24T01:57:50;13.90;99.90
7530;DHT22;3806;52.270;10.544;2023-04-24T02:00:17;13.80;99.90
7530;DHT22;3806;52.270;10.544;2023-04-24T02:02:42;13.80;99.90
7530;DHT22;3806;52.270;10.544;2023-04-24T02:05:08;13.70;99.90
7530;DHT22;3806;52.270;10.544;2023-04-24T02:07:34;13.70;99.90
7530;DHT22;3806;52.270;10.544;2023-04-24T02:09:59;13.70;99.90
7530;DHT22;3806;52.270;10.544;2023-04-24T02:12:25;13.70;99.90
7530;DHT22;3806;52.270;10.544;2023-04-24T02:14:51;13.70;99.90
7530;DHT22;3806;52.270;10.544;2023-04-24T02:17:17;13.70;99.90
7530;DHT22;3806;52.270;10.544;2023-04-24T02:19:44;13.60;99.90
7530;DHT22;3806;52.270;10.544;2023-04-24T02:22:10;13.60;99.90
7530;DHT22;3806;52.270;10.544;2023-04-24T02:24:36;13.50;99.90
7530;DHT22;3806;52.270;10.544;2023-04-24T02:27:01;13.50;99.90
7530;DHT22;3806;52.270;10.544;2023-04-24T02:29:28;13.50;99.90
7530;DHT22;3806;52.270;10.544;2023-04-24T02:31:53;13.40;99.90
7530;DHT22;3806;52.270;10.544;2023-04-24T02:34:19;13.40;99.90
7530;DHT22;3806;52.270;10.544;2023-04-24T02:36:44;13.40;99.90
7530;DHT22;3806;52.270;10.544;2023-04-24T02:39:10;13.40;99.90
7530;DHT22;3806;52.270;10.544;2023-04-24T02:41:35;13.30;99.90
7530;DHT22;3806;52.270;10.544;2023-04-24T02:44:01;13.30;99.90
7530;DHT22;3806;52.270;10.544;2023-04-24T02:46:26;13.30;99.90
7530;DHT22;3806;52.270;10.544;2023-04-24T02:48:52;13.30;99.90
7530;DHT22;3806;52.270;10.544;2023-04-24T02:51:17;13.20;99.90
7530;DHT22;3806;52.270;10.544;2023-04-24T02:53:43;13.20;99.90
7530;DHT22;3806;52.270;10.544;2023-04-24T02:56:08;13.20;99.90
7530;DHT22;3806;52.270;10.544;2023-04-24T02:58:37;13.20;99.90
7530;DHT22;3806;52.270;10.544;2023-04-24T03:01:03;13.20;99.90
7530;DHT22;3806;52.270;10.544;2023-04-24T03:03:28;13.20;99.90
7530;DHT22;3806;52.270;10.544;2023-04-24T03:05:54;13.20;99.90
7530;DHT22;3806;52.270;10.544;2023-04-24T03:08:20;13.20;99.90
7530;DHT22;3806;52.270;10.544;2023-04-24T03:10:46;13.20;99.90
7530;DHT22;3806;52.270;10.544;2023-04-24T03:13:11;13.20;99.90
7530;DHT22;3806;52.270;10.544;2023-04-24T03:15:37;13.20;99.90
7530;DHT22;3806;52.270;10.544;2023-04-24T03:18:03;13.20;99.90
7530;DHT22;3806;52.270;10.544;2023-04-24T03:20:29;13.20;99.90
7530;DHT22;3806;52.270;10.544;2023-04-24T03:22:54;13.20;99.90
7530;DHT22;3806;52.270;10.544;2023-04-24T03:25:21;13.20;99.90
7530;DHT22;3806;52.270;10.544;2023-04-24T03:27:47;13.20;99.90
7530;DHT22;3806;52.270;10.544;2023-04-24T03:30:12;13.20;99.90
7530;DHT22;3806;52.270;10.544;2023-04-24T03:32:38;13.20;99.90
7530;DHT22;3806;52.270;10.544;2023-04-24T03:35:05;13.20;99.90
7530;DHT22;3806;52.270;10.544;2023-04-24T03:37:32;13.20;99.90
7530;DHT22;3806;52.270;10.544;2023-04-24T03:39:57;13.20;99.90
7530;DHT22;3806;52.270;10.544;2023-04-24T03:42:23;13.20;99.90
7530;DHT22;3806;52.270;10.544;2023-04-24T03:44:48;13.10;99.90
7530;DHT22;3806;52.270;10.544;2023-04-24T03:47:14;13.10;99.90
7530;DHT22;3806;52.270;10.544;2023-04-24T03:49:40;13.10;99.90
7530;DHT22;3806;52.270;10.544;2023-04-24T03:52:05;13.10;99.90
7530;DHT22;3806;52.270;10.544;2023-04-24T03:54:31;12.90;99.90
7530;DHT22;3806;52.270;10.544;2023-04-24T03:56:57;13.10;99.90
7530;DHT22;3806;52.270;10.544;2023-04-24T03:59:23;13.10;99.90
7530;DHT22;3806;52.270;10.544;2023-04-24T04:01:49;13.00;99.90
7530;DHT22;3806;52.270;10.544;2023-04-24T04:04:14;13.00;99.90
7530;DHT22;3806;52.270;10.544;2023-04-24T04:06:40;13.00;99.90
7530;DHT22;3806;52.270;10.544;2023-04-24T04:09:05;13.00;99.90
7530;DHT22;3806;52.270;10.544;2023-04-24T04:11:32;13.00;99.90
7530;DHT22;3806;52.270;10.544;2023-04-24T04:13:57;13.00;99.90
7530;DHT22;3806;52.270;10.544;2023-04-24T04:16:23;13.00;99.90
7530;DHT22;3806;52.270;10.544;2023-04-24T04:18:49;12.90;99.90
7530;DHT22;3806;52.270;10.544;2023-04-24T04:21:15;12.90;99.90
7530;DHT22;3806;52.270;10.544;2023-04-24T04:23:40;12.90;99.90
7530;DHT22;3806;52.270;10.544;2023-04-24T04:26:06;12.90;99.90
7530;DHT22;3806;52.270;10.544;2023-04-24T04:28:33;13.00;99.90
7530;DHT22;3806;52.270;10.544;2023-04-24T04:30:58;12.90;99.90
7530;DHT22;3806;52.270;10.544;2023-04-24T04:33:24;12.90;99.90
7530;DHT22;3806;52.270;10.544;2023-04-24T04:35:50;13.00;99.90
7530;DHT22;3806;52.270;10.544;2023-04-24T04:38:18;13.00;99.90
7530;DHT22;3806;52.270;10.544;2023-04-24T04:40:44;13.00;99.90
7530;DHT22;3806;52.270;10.544;2023-04-24T04:43:09;13.10;99.90
7530;DHT22;3806;52.270;10.544;2023-04-24T04:45:36;13.10;99.90
7530;DHT22;3806;52.270;10.544;2023-04-24T04:48:02;13.10;99.90
7530;DHT22;3806;52.270;10.544;2023-04-24T04:50:28;13.20;99.90
7530;DHT22;3806;52.270;10.544;2023-04-24T04:52:54;13.20;99.90
7530;DHT22;3806;52.270;10.544;2023-04-24T04:55:19;13.10;99.90
7530;DHT22;3806;52.270;10.544;2023-04-24T04:57:46;13.30;99.90
7530;DHT22;3806;52.270;10.544;2023-04-24T05:00:12;13.40;99.90
7530;DHT22;3806;52.270;10.544;2023-04-24T05:02:38;13.40;99.90
7530;DHT22;3806;52.270;10.544;2023-04-24T05:05:05;13.40;99.90
7530;DHT22;3806;52.270;10.544;2023-04-24T05:07:31;13.50;99.90
7530;DHT22;3806;52.270;10.544;2023-04-24T05:09:57;13.50;99.90
7530;DHT22;3806;52.270;10.544;2023-04-24T05:12:23;13.50;99.90
7530;DHT22;3806;52.270;10.544;2023-04-24T05:14:49;13.50;99.90
7530;DHT22;3806;52.270;10.544;2023-04-24T05:17:15;13.50;99.90
7530;DHT22;3806;52.270;10.544;2023-04-24T05:19:41;13.50;99.90
7530;DHT22;3806;52.270;10.544;2023-04-24T05:22:07;13.60;99.90
7530;DHT22;3806;52.270;10.544;2023-04-24T05:24:36;13.60;99.90
7530;DHT22;3806;52.270;10.544;2023-04-24T05:27:03;13.70;99.90
7530;DHT22;3806;52.270;10.544;2023-04-24T05:29:30;13.70;99.90
7530;DHT22;3806;52.270;10.544;2023-04-24T05:31:57;13.70;99.90
7530;DHT22;3806;52.270;10.544;2023-04-24T05:34:23;13.70;99.90
7530;DHT22;3806;52.270;10.544;2023-04-24T05:36:49;13.70;99.80
7530;DHT22;3806;52.270;10.544;2023-04-24T05:39:15;13.80;99.80
7530;DHT22;3806;52.270;10.544;2023-04-24T05:41:41;13.90;99.70
7530;DHT22;3806;52.270;10.544;2023-04-24T05:44:07;13.90;99.30
7530;DHT22;3806;52.270;10.544;2023-04-24T05:46:33;13.90;99.20
7530;DHT22;3806;52.270;10.544;2023-04-24T05:48:59;14.00;99.20
7530;DHT22;3806;52.270;10.544;2023-04-24T05:51:25;14.00;99.00
7530;DHT22;3806;52.270;10.544;2023-04-24T05:53:51;14.00;98.90
7530;DHT22;3806;52.270;10.544;2023-04-24T05:56:17;14.00;98.80
7530;DHT22;3806;52.270;10.544;2023-04-24T05:58:43;14.00;98.60
7530;DHT22;3806;52.270;10.544;2023-04-24T06:01:08;14.00;98.60
7530;DHT22;3806;52.270;10.544;2023-04-24T06:03:34;14.20;98.60
7530;DHT22;3806;52.270;10.544;2023-04-24T06:06:00;14.20;98.30
7530;DHT22;3806;52.270;10.544;2023-04-24T06:08:26;14.50;98.00
7530;DHT22;3806;52.270;10.544;2023-04-24T06:10:51;14.70;97.60
7530;DHT22;3806;52.270;10.544;2023-04-24T06:13:17;14.80;97.30
7530;DHT22;3806;52.270;10.544;2023-04-24T06:15:43;14.80;96.80
7530;DHT22;3806;52.270;10.544;2023-04-24T06:18:09;14.80;96.70
7530;DHT22;3806;52.270;10.544;2023-04-24T06:20:36;14.80;96.70
7530;DHT22;3806;52.270;10.544;2023-04-24T06:23:01;14.80;96.80
7530;DHT22;3806;52.270;10.544;2023-04-24T06:25:28;14.80;96.90
7530;DHT22;3806;52.270;10.544;2023-04-24T06:27:55;14.70;97.00
7530;DHT22;3806;52.270;10.544;2023-04-24T06:30:21;14.70;97.30
7530;DHT22;3806;52.270;10.544;2023-04-24T06:32:47;14.70;97.70
7530;DHT22;3806;52.270;10.544;2023-04-24T06:35:12;14.50;98.30
7530;DHT22;3806;52.270;10.544;2023-04-24T06:37:42;14.50;98.70
7530;DHT22;3806;52.270;10.544;2023-04-24T06:40:08;14.40;98.90
7530;DHT22;3806;52.270;10.544;2023-04-24T06:42:34;14.30;99.30
7530;DHT22;3806;52.270;10.544;2023-04-24T06:45:00;14.20;99.60
7530;DHT22;3806;52.270;10.544;2023-04-24T06:47:26;14.20;99.90
7530;DHT22;3806;52.270;10.544;2023-04-24T06:49:52;14.20;99.90
7530;DHT22;3806;52.270;10.544;2023-04-24T06:52:18;14.30;99.90
7530;DHT22;3806;52.270;10.544;2023-04-24T06:54:43;14.60;99.90
7530;DHT22;3806;52.270;10.544;2023-04-24T06:57:09;15.20;99.40
7530;DHT22;3806;52.270;10.544;2023-04-24T06:59:35;15.80;98.00
7530;DHT22;3806;52.270;10.544;2023-04-24T07:02:01;16.00;96.90
7530;DHT22;3806;52.270;10.544;2023-04-24T07:04:27;16.00;96.60
7530;DHT22;3806;52.270;10.544;2023-04-24T07:06:53;16.30;97.20
7530;DHT22;3806;52.270;10.544;2023-04-24T07:09:23;17.70;94.90
7530;DHT22;3806;52.270;10.544;2023-04-24T07:11:50;19.50;90.10
7530;DHT22;3806;52.270;10.544;2023-04-24T07:14:16;20.80;82.50
7530;DHT22;3806;52.270;10.544;2023-04-24T07:16:42;22.90;75.40
7530;DHT22;3806;52.270;10.544;2023-04-24T07:19:09;25.50;58.30
7530;DHT22;3806;52.270;10.544;2023-04-24T07:21:35;27.90;48.40
7530;DHT22;3806;52.270;10.544;2023-04-24T07:24:00;29.60;41.40
7530;DHT22;3806;52.270;10.544;2023-04-24T07:26:28;30.40;38.10
7530;DHT22;3806;52.270;10.544;2023-04-24T07:28:53;30.00;35.50
7530;DHT22;3806;52.270;10.544;2023-04-24T07:31:19;28.60;36.30
7530;DHT22;3806;52.270;10.544;2023-04-24T07:33:44;26.80;38.30
7530;DHT22;3806;52.270;10.544;2023-04-24T07:36:11;24.90;41.10
7530;DHT22;3806;52.270;10.544;2023-04-24T07:38:47;22.90;41.00
7530;DHT22;3806;52.270;10.544;2023-04-24T07:41:13;21.30;41.90
7530;DHT22;3806;52.270;10.544;2023-04-24T07:43:39;19.90;44.00
7530;DHT22;3806;52.270;10.544;2023-04-24T07:46:05;18.80;46.70
7530;DHT22;3806;52.270;10.544;2023-04-24T07:48:30;17.90;50.50
7530;DHT22;3806;52.270;10.544;2023-04-24T07:50:56;17.20;56.30
7530;DHT22;3806;52.270;10.544;2023-04-24T07:53:21;16.60;64.90
7530;DHT22;3806;52.270;10.544;2023-04-24T07:55:47;16.10;75.50
7530;DHT22;3806;52.270;10.544;2023-04-24T07:58:13;15.70;81.90
7530;DHT22;3806;52.270;10.544;2023-04-24T08:00:38;15.40;87.40
7530;DHT22;3806;52.270;10.544;2023-04-24T08:03:04;15.20;91.00
7530;DHT22;3806;52.270;10.544;2023-04-24T08:05:30;15.10;92.40
7530;DHT22;3806;52.270;10.544;2023-04-24T08:07:55;15.00;93.20
7530;DHT22;3806;52.270;10.544;2023-04-24T08:10:22;15.00;93.90
7530;DHT22;3806;52.270;10.544;2023-04-24T08:12:48;14.90;94.40
7530;DHT22;3806;52.270;10.544;2023-04-24T08:15:14;15.00;94.80
7530;DHT22;3806;52.270;10.544;2023-04-24T08:17:39;15.00;95.20
7530;DHT22;3806;52.270;10.544;2023-04-24T08:20:06;15.20;95.20
7530;DHT22;3806;52.270;10.544;2023-04-24T08:22:35;15.30;94.60
7530;DHT22;3806;52.270;10.544;2023-04-24T08:25:01;15.40;94.30
7530;DHT22;3806;52.270;10.544;2023-04-24T08:27:26;15.50;94.50
7530;DHT22;3806;52.270;10.544;2023-04-24T08:29:53;15.60;94.20
7530;DHT22;3806;52.270;10.544;2023-04-24T08:32:19;15.80;94.40
7530;DHT22;3806;52.270;10.544;2023-04-24T08:34:44;16.00;94.50
7530;DHT22;3806;52.270;10.544;2023-04-24T08:37:10;16.30;94.10
7530;DHT22;3806;52.270;10.544;2023-04-24T08:39:36;16.70;93.40
7530;DHT22;3806;52.270;10.544;2023-04-24T08:42:02;17.60;91.90
7530;DHT22;3806;52.270;10.544;2023-04-24T08:44:32;18.50;88.40
7530;DHT22;3806;52.270;10.544;2023-04-24T08:46:58;19.40;81.40
7530;DHT22;3806;52.270;10.544;2023-04-24T08:49:24;20.20;75.30
7530;DHT22;3806;52.270;10.544;2023-04-24T08:51:50;20.90;69.90
7530;DHT22;3806;52.270;10.544;2023-04-24T08:54:18;21.40;66.00
7530;DHT22;3806;52.270;10.544;2023-04-24T08:56:44;21.90;62.20
7530;DHT22;3806;52.270;10.544;2023-04-24T08:59:10;22.50;59.30
7530;DHT22;3806;52.270;10.544;2023-04-24T09:01:37;22.60;57.20
7530;DHT22;3806;52.270;10.544;2023-04-24T09:04:07;22.40;54.60
7530;DHT22;3806;52.270;10.544;2023-04-24T09:06:33;21.90;53.30
7530;DHT22;3806;52.270;10.544;2023-04-24T09:09:01;21.90;52.50
7530;DHT22;3806;52.270;10.544;2023-04-24T09:11:27;22.20;50.50
7530;DHT22;3806;52.270;10.544;2023-04-24T09:13:56;22.20;48.10
7530;DHT22;3806;52.270;10.544;2023-04-24T09:16:22;22.00;47.00
7530;DHT22;3806;52.270;10.544;2023-04-24T09:18:50;22.30;46.70
7530;DHT22;3806;52.270;10.544;2023-04-24T09:21:15;22.60;45.00
7530;DHT22;3806;52.270;10.544;2023-04-24T09:23:41;22.60;44.60
7530;DHT22;3806;52.270;10.544;2023-04-24T09:26:09;22.30;44.20
7530;DHT22;3806;52.270;10.544;2023-04-24T09:28:38;21.90;44.90
7530;DHT22;3806;52.270;10.544;2023-04-24T09:31:12;21.90;45.80
7530;DHT22;3806;52.270;10.544;2023-04-24T09:33:39;22.30;44.90
7530;DHT22;3806;52.270;10.544;2023-04-24T09:36:05;22.60;44.20
7530;DHT22;3806;52.270;10.544;2023-04-24T09:38:38;22.80;42.90
7530;DHT22;3806;52.270;10.544;2023-04-24T09:41:07;22.50;41.90
7530;DHT22;3806;52.270;10.544;2023-04-24T09:43:34;22.10;42.60
7530;DHT22;3806;52.270;10.544;2023-04-24T09:46:05;21.60;43.10
7530;DHT22;3806;52.270;10.544;2023-04-24T09:48:35;20.90;42.50
7530;DHT22;3806;52.270;10.544;2023-04-24T09:51:03;20.40;42.90
7530;DHT22;3806;52.270;10.544;2023-04-24T09:53:30;20.00;44.70
7530;DHT22;3806;52.270;10.544;2023-04-24T09:56:01;19.50;45.50
7530;DHT22;3806;52.270;10.544;2023-04-24T09:58:28;19.30;46.20
7530;DHT22;3806;52.270;10.544;2023-04-24T10:00:55;19.20;46.70
7530;DHT22;3806;52.270;10.544;2023-04-24T10:03:24;19.10;47.10
7530;DHT22;3806;52.270;10.544;2023-04-24T10:05:52;19.10;47.60
7530;DHT22;3806;52.270;10.544;2023-04-24T10:08:18;19.00;46.50
7530;DHT22;3806;52.270;10.544;2023-04-24T10:10:45;18.80;46.40
7530;DHT22;3806;52.270;10.544;2023-04-24T10:13:13;18.60;46.70
7530;DHT22;3806;52.270;10.544;2023-04-24T10:15:39;18.30;47.10
7530;DHT22;3806;52.270;10.544;2023-04-24T10:18:06;18.00;48.00
7530;DHT22;3806;52.270;10.544;2023-04-24T10:20:33;17.80;48.80
7530;DHT22;3806;52.270;10.544;2023-04-24T10:23:00;18.00;49.20
7530;DHT22;3806;52.270;10.544;2023-04-24T10:25:27;18.00;48.30
7530;DHT22;3806;52.270;10.544;2023-04-24T10:27:53;17.80;47.20
7530;DHT22;3806;52.270;10.544;2023-04-24T10:30:23;17.50;46.80
7530;DHT22;3806;52.270;10.544;2023-04-24T10:32:48;17.30;47.30
7530;DHT22;3806;52.270;10.544;2023-04-24T10:35:15;17.00;48.30
7530;DHT22;3806;52.270;10.544;2023-04-24T10:37:48;16.90;49.50
7530;DHT22;3806;52.270;10.544;2023-04-24T10:40:32;16.90;50.20
7530;DHT22;3806;52.270;10.544;2023-04-24T10:42:59;16.90;50.40
7530;DHT22;3806;52.270;10.544;2023-04-24T10:45:25;16.90;50.50
7530;DHT22;3806;52.270;10.544;2023-04-24T10:48:07;17.00;50.60
7530;DHT22;3806;52.270;10.544;2023-04-24T10:50:46;16.90;51.20
7530;DHT22;3806;52.270;10.544;2023-04-24T10:53:23;16.90;51.10
7530;DHT22;3806;52.270;10.544;2023-04-24T10:56:08;16.90;51.80
7530;DHT22;3806;52.270;10.544;2023-04-24T10:58:40;16.80;51.10
7530;DHT22;3806;52.270;10.544;2023-04-24T11:01:06;16.70;50.60
7530;DHT22;3806;52.270;10.544;2023-04-24T11:03:34;16.40;49.80
7530;DHT22;3806;52.270;10.544;2023-04-24T11:06:08;16.40;50.30
7530;DHT22;3806;52.270;10.544;2023-04-24T11:08:39;16.30;50.80
7530;DHT22;3806;52.270;10.544;2023-04-24T11:11:12;16.40;51.30
7530;DHT22;3806;52.270;10.544;2023-04-24T11:19:06;17.40;49.90
7530;DHT22;3806;52.270;10.544;2023-04-24T11:21:40;17.80;49.00
7530;DHT22;3806;52.270;10.544;2023-04-24T11:26:54;18.00;46.60
7530;DHT22;3806;52.270;10.544;2023-04-24T11:29:20;18.00;46.40
7530;DHT22;3806;52.270;10.544;2023-04-24T11:31:46;17.90;46.10
7530;DHT22;3806;52.270;10.544;2023-04-24T11:34:15;17.80;45.80
7530;DHT22;3806;52.270;10.544;2023-04-24T11:36:46;17.80;46.20
7530;DHT22;3806;52.270;10.544;2023-04-24T11:39:13;17.70;46.90
7530;DHT22;3806;52.270;10.544;2023-04-24T11:41:38;17.60;47.80
7530;DHT22;3806;52.270;10.544;2023-04-24T11:44:09;17.50;47.50
7530;DHT22;3806;52.270;10.544;2023-04-24T11:46:35;17.40;47.60
7530;DHT22;3806;52.270;10.544;2023-04-24T11:49:03;17.20;48.20
7530;DHT22;3806;52.270;10.544;2023-04-24T11:51:28;17.10;48.30
7530;DHT22;3806;52.270;10.544;2023-04-24T11:53:55;16.90;48.30
7530;DHT22;3806;52.270;10.544;2023-04-24T11:56:22;16.80;48.80
7530;DHT22;3806;52.270;10.544;2023-04-24T11:58:48;16.70;49.30
7530;DHT22;3806;52.270;10.544;2023-04-24T12:01:13;16.60;49.10
7530;DHT22;3806;52.270;10.544;2023-04-24T12:03:39;16.50;49.50
7530;DHT22;3806;52.270;10.544;2023-04-24T12:06:09;16.40;49.60
7530;DHT22;3806;52.270;10.544;2023-04-24T12:08:35;16.40;49.90
7530;DHT22;3806;52.270;10.544;2023-04-24T12:11:05;16.30;50.20
7530;DHT22;3806;52.270;10.544;2023-04-24T12:13:33;16.30;50.20
7530;DHT22;3806;52.270;10.544;2023-04-24T12:15:58;16.40;50.50
7530;DHT22;3806;52.270;10.544;2023-04-24T12:18:24;16.50;50.70
7530;DHT22;3806;52.270;10.544;2023-04-24T12:20:49;16.60;50.80
7530;DHT22;3806;52.270;10.544;2023-04-24T12:23:15;16.70;51.00
7530;DHT22;3806;52.270;10.544;2023-04-24T12:25:41;16.80;50.80
7530;DHT22;3806;52.270;10.544;2023-04-24T12:28:10;16.90;50.50
7530;DHT22;3806;52.270;10.544;2023-04-24T12:30:42;16.90;50.60
7530;DHT22;3806;52.270;10.544;2023-04-24T12:33:10;16.80;50.80
7530;DHT22;3806;52.270;10.544;2023-04-24T12:35:35;16.80;51.10
7530;DHT22;3806;52.270;10.544;2023-04-24T12:38:09;16.60;51.30
7530;DHT22;3806;52.270;10.544;2023-04-24T12:40:35;16.50;51.90
7530;DHT22;3806;52.270;10.544;2023-04-24T12:43:12;16.30;52.50
7530;DHT22;3806;52.270;10.544;2023-04-24T12:45:38;16.10;53.40
7530;DHT22;3806;52.270;10.544;2023-04-24T12:48:04;16.00;55.80
7530;DHT22;3806;52.270;10.544;2023-04-24T12:50:29;15.90;56.90
7530;DHT22;3806;52.270;10.544;2023-04-24T12:52:55;15.90;57.70
7530;DHT22;3806;52.270;10.544;2023-04-24T12:55:20;15.80;57.50
7530;DHT22;3806;52.270;10.544;2023-04-24T12:57:46;15.90;57.10
7530;DHT22;3806;52.270;10.544;2023-04-24T13:00:12;16.00;57.00
7530;DHT22;3806;52.270;10.544;2023-04-24T13:02:38;16.00;56.80
7530;DHT22;3806;52.270;10.544;2023-04-24T13:05:05;15.90;56.70
7530;DHT22;3806;52.270;10.544;2023-04-24T13:07:31;15.70;57.10
7530;DHT22;3806;52.270;10.544;2023-04-24T13:09:56;15.60;58.40
7530;DHT22;3806;52.270;10.544;2023-04-24T13:12:23;15.40;59.20
7530;DHT22;3806;52.270;10.544;2023-04-24T13:14:51;15.20;60.30
7530;DHT22;3806;52.270;10.544;2023-04-24T13:17:17;15.10;61.40
7530;DHT22;3806;52.270;10.544;2023-04-24T13:19:43;15.20;62.50
7530;DHT22;3806;52.270;10.544;2023-04-24T13:22:11;15.40;63.50
7530;DHT22;3806;52.270;10.544;2023-04-24T13:24:37;15.50;64.40
7530;DHT22;3806;52.270;10.544;2023-04-24T13:27:03;15.60;65.20
7530;DHT22;3806;52.270;10.544;2023-04-24T13:29:29;15.60;65.00
7530;DHT22;3806;52.270;10.544;2023-04-24T13:31:54;15.60;64.00
7530;DHT22;3806;52.270;10.544;2023-04-24T13:34:21;15.50;64.30
7530;DHT22;3806;52.270;10.544;2023-04-24T13:36:46;15.30;65.30
7530;DHT22;3806;52.270;10.544;2023-04-24T13:39:12;15.20;65.80
7530;DHT22;3806;52.270;10.544;2023-04-24T13:41:38;15.10;65.90
7530;DHT22;3806;52.270;10.544;2023-04-24T13:44:04;14.90;66.00
7530;DHT22;3806;52.270;10.544;2023-04-24T13:46:30;14.90;66.20
7530;DHT22;3806;52.270;10.544;2023-04-24T13:48:56;14.80;67.00
7530;DHT22;3806;52.270;10.544;2023-04-24T13:51:23;14.80;67.70
7530;DHT22;3806;52.270;10.544;2023-04-24T13:53:52;14.70;66.50
7530;DHT22;3806;52.270;10.544;2023-04-24T13:56:17;14.60;66.00
7530;DHT22;3806;52.270;10.544;2023-04-24T13:58:43;14.50;66.40
7530;DHT22;3806;52.270;10.544;2023-04-24T14:01:09;14.60;67.30
7530;DHT22;3806;52.270;10.544;2023-04-24T14:03:34;14.60;67.50
7530;DHT22;3806;52.270;10.544;2023-04-24T14:06:00;14.50;67.40
7530;DHT22;3806;52.270;10.544;2023-04-24T14:08:25;14.40;68.30
7530;DHT22;3806;52.270;10.544;2023-04-24T14:10:51;14.30;68.90
7530;DHT22;3806;52.270;10.544;2023-04-24T14:13:16;14.30;69.20
7530;DHT22;3806;52.270;10.544;2023-04-24T14:15:42;14.30;69.60
7530;DHT22;3806;52.270;10.544;2023-04-24T14:18:08;14.40;69.90
7530;DHT22;3806;52.270;10.544;2023-04-24T14:20:33;14.30;70.10
7530;DHT22;3806;52.270;10.544;2023-04-24T14:22:59;14.20;70.60
7530;DHT22;3806;52.270;10.544;2023-04-24T14:25:25;14.10;71.20
7530;DHT22;3806;52.270;10.544;2023-04-24T14:27:51;14.10;72.10
7530;DHT22;3806;52.270;10.544;2023-04-24T14:30:18;14.00;72.80
7530;DHT22;3806;52.270;10.544;2023-04-24T14:32:45;13.80;73.80
7530;DHT22;3806;52.270;10.544;2023-04-24T14:35:11;13.60;75.40
7530;DHT22;3806;52.270;10.544;2023-04-24T14:37:37;13.50;76.50
7530;DHT22;3806;52.270;10.544;2023-04-24T14:40:03;13.40;77.40
7530;DHT22;3806;52.270;10.544;2023-04-24T14:42:30;13.40;78.50
7530;DHT22;3806;52.270;10.544;2023-04-24T14:44:56;13.30;79.00
7530;DHT22;3806;52.270;10.544;2023-04-24T14:47:21;13.30;79.80
7530;DHT22;3806;52.270;10.544;2023-04-24T14:49:48;13.20;80.30
7530;DHT22;3806;52.270;10.544;2023-04-24T14:52:13;13.10;80.70
7530;DHT22;3806;52.270;10.544;2023-04-24T14:54:39;13.00;82.90
7530;DHT22;3806;52.270;10.544;2023-04-24T14:57:05;12.80;85.10
7530;DHT22;3806;52.270;10.544;2023-04-24T14:59:31;12.70;88.10
7530;DHT22;3806;52.270;10.544;2023-04-24T15:01:57;12.60;90.20
7530;DHT22;3806;52.270;10.544;2023-04-24T15:04:26;12.60;91.00
7530;DHT22;3806;52.270;10.544;2023-04-24T15:06:53;12.60;91.50
7530;DHT22;3806;52.270;10.544;2023-04-24T15:09:22;12.50;91.90
7530;DHT22;3806;52.270;10.544;2023-04-24T15:11:48;12.50;91.80
7530;DHT22;3806;52.270;10.544;2023-04-24T15:14:15;12.40;92.20
7530;DHT22;3806;52.270;10.544;2023-04-24T15:16:41;12.20;92.80
7530;DHT22;3806;52.270;10.544;2023-04-24T15:19:06;12.40;92.90
7530;DHT22;3806;52.270;10.544;2023-04-24T15:21:32;12.30;92.90
7530;DHT22;3806;52.270;10.544;2023-04-24T15:23:58;12.50;93.00
7530;DHT22;3806;52.270;10.544;2023-04-24T15:26:24;12.50;93.20
7530;DHT22;3806;52.270;10.544;2023-04-24T15:28:49;12.50;93.50
7530;DHT22;3806;52.270;10.544;2023-04-24T15:31:17;12.50;94.10
7530;DHT22;3806;52.270;10.544;2023-04-24T15:33:42;12.40;94.70
7530;DHT22;3806;52.270;10.544;2023-04-24T15:36:08;12.40;95.50
7530;DHT22;3806;52.270;10.544;2023-04-24T15:38:34;12.40;95.80
7530;DHT22;3806;52.270;10.544;2023-04-24T15:40:59;12.20;96.20
7530;DHT22;3806;52.270;10.544;2023-04-24T15:43:25;12.20;96.40
7530;DHT22;3806;52.270;10.544;2023-04-24T15:45:50;12.20;96.60
7530;DHT22;3806;52.270;10.544;2023-04-24T15:48:16;12.10;96.40